CFB Cold Lake
CYOD : now visible

Airfield :











YOU CAN JOIN US ON...

 
LOGIN :

Register | Disclaimer

   EN    FR    IT 

 









Legend :    VFR   Marginal VFR   IFR   Intensive IFR   Very Intensive IFR
Visi :
Ceiling :
>= 8 km
>= 3000ft
5 to 8 km
1000 to 3000 ft
1500m to 5 km
500 to 1000 ft
800 to 1500m
200 to 500 ft
< 800m
< 200 ft
Symbols :   Thunderstorms  Fog  Heavy snow  Heavy precipitations  Wind > 20 kt






- Airport Elevation : 1775 ft
- IATA code : YOD


CYOD - CFB Cold Lake

CURRENT METAR :
  • 290200Z 15006KT 15SM FEW100 M01/M05 A2998 RMK AC1 SLP181

EXPIRED METARs :
  • 290100Z 14006KT 15SM FEW100 M01/M05 A3000 RMK AC1 SLP187
  • 290000Z 12003KT 15SM BKN100 00/M05 A3001 RMK AC6 SLP192

TAF TAF CYOD
Valid from the 29 at 00:00 until the 30 at 00:00 UTC


282330Z 2900/2924 VRB03KT P6SM FEW020 BKN100
BECMG 2900/2902 16005KT
FM290300 16005KT P6SM FEW012 BKN040
TEMPO 2903/2906 P6SM -SN
PROB30 2903/2906 3SM -FZRA BR BKN012 OVC040
FM290600 20005KT P6SM SCT012 OVC040
TEMPO 2906/2911 P6SM -SN BKN012 OVC040
BECMG 2909/2911 VRB03KT
FM291100 VRB03KT P6SM -SN BKN010 OVC040
BECMG 2918/2920 27005KT RMK NXT FCST BY 290300Z
CZEG FIR / North America



MET'MAP, your aeronautical weather chart ! - Copyright ORBIFLY December 2007 - Disclaimer

ORBIFLY MET'MAP TEAM :

Programming & Development : Alexandra Zaïnal
Concept & original design : Baudouin d'Aumeries
Assistance for programming : Marc-Olivier Méhu
Technical & hardware support : Manuel Goepfert

Contact : metmap@orbifly.com




SOURCES & CREDITS :

   NOAA       Earth
Advisory